sensor_id;sensor_type;location;lat;lon;timestamp;temperature;humidity
52125;DHT22;38119;52.710;6.398;2024-02-14T00:01:06;7.30;99.90
52125;DHT22;38119;52.710;6.398;2024-02-14T00:03:35;7.30;99.90
52125;DHT22;38119;52.710;6.398;2024-02-14T00:06:03;7.30;99.90
52125;DHT22;38119;52.710;6.398;2024-02-14T00:08:29;7.30;99.90
52125;DHT22;38119;52.710;6.398;2024-02-14T00:10:55;7.30;99.90
52125;DHT22;38119;52.710;6.398;2024-02-14T00:13:21;7.30;99.90
52125;DHT22;38119;52.710;6.398;2024-02-14T00:15:47;7.30;99.90
52125;DHT22;38119;52.710;6.398;2024-02-14T00:18:13;7.40;99.90
52125;DHT22;38119;52.710;6.398;2024-02-14T00:20:40;7.30;99.90
52125;DHT22;38119;52.710;6.398;2024-02-14T00:23:07;7.30;99.90
52125;DHT22;38119;52.710;6.398;2024-02-14T00:25:33;7.40;99.90
52125;DHT22;38119;52.710;6.398;2024-02-14T00:27:59;7.40;99.90
52125;DHT22;38119;52.710;6.398;2024-02-14T00:30:29;7.40;99.90
52125;DHT22;38119;52.710;6.398;2024-02-14T00:32:55;7.40;99.90
52125;DHT22;38119;52.710;6.398;2024-02-14T00:35:22;7.40;99.90
52125;DHT22;38119;52.710;6.398;2024-02-14T00:37:49;7.40;99.90
52125;DHT22;38119;52.710;6.398;2024-02-14T00:40:14;7.40;99.90
52125;DHT22;38119;52.710;6.398;2024-02-14T00:42:40;7.40;99.90
52125;DHT22;38119;52.710;6.398;2024-02-14T00:45:06;7.40;99.90
52125;DHT22;38119;52.710;6.398;2024-02-14T00:47:34;7.50;99.90
52125;DHT22;38119;52.710;6.398;2024-02-14T00:50:00;7.50;99.90
52125;DHT22;38119;52.710;6.398;2024-02-14T00:52:26;7.50;99.90
52125;DHT22;38119;52.710;6.398;2024-02-14T00:54:52;7.50;99.90
52125;DHT22;38119;52.710;6.398;2024-02-14T00:57:17;7.50;99.90
52125;DHT22;38119;52.710;6.398;2024-02-14T00:59:44;7.50;99.90
52125;DHT22;38119;52.710;6.398;2024-02-14T01:02:10;7.50;99.90
52125;DHT22;38119;52.710;6.398;2024-02-14T01:04:36;7.50;99.90
52125;DHT22;38119;52.710;6.398;2024-02-14T01:07:03;7.60;99.90
52125;DHT22;38119;52.710;6.398;2024-02-14T01:09:29;7.60;99.90
52125;DHT22;38119;52.710;6.398;2024-02-14T01:11:55;7.60;99.90
52125;DHT22;38119;52.710;6.398;2024-02-14T01:14:21;7.60;99.90
52125;DHT22;38119;52.710;6.398;2024-02-14T01:16:47;7.60;99.90
52125;DHT22;38119;52.710;6.398;2024-02-14T01:19:13;7.70;99.90
52125;DHT22;38119;52.710;6.398;2024-02-14T01:21:39;7.70;99.90
52125;DHT22;38119;52.710;6.398;2024-02-14T01:24:05;7.70;99.90
52125;DHT22;38119;52.710;6.398;2024-02-14T01:26:31;7.70;99.90
52125;DHT22;38119;52.710;6.398;2024-02-14T01:28:57;7.70;99.90
52125;DHT22;38119;52.710;6.398;2024-02-14T01:31:26;7.70;99.90
52125;DHT22;38119;52.710;6.398;2024-02-14T01:33:53;7.80;99.90
52125;DHT22;38119;52.710;6.398;2024-02-14T01:36:18;7.80;99.90
52125;DHT22;38119;52.710;6.398;2024-02-14T01:38:44;7.80;99.90
52125;DHT22;38119;52.710;6.398;2024-02-14T01:41:10;7.80;99.90
52125;DHT22;38119;52.710;6.398;2024-02-14T01:43:36;7.80;99.90
52125;DHT22;38119;52.710;6.398;2024-02-14T01:46:06;7.80;99.90
52125;DHT22;38119;52.710;6.398;2024-02-14T01:48:34;7.80;99.90
52125;DHT22;38119;52.710;6.398;2024-02-14T01:51:01;7.90;99.90
52125;DHT22;38119;52.710;6.398;2024-02-14T01:53:27;7.90;99.90
52125;DHT22;38119;52.710;6.398;2024-02-14T01:55:56;7.90;99.90
52125;DHT22;38119;52.710;6.398;2024-02-14T01:58:22;7.90;99.90
52125;DHT22;38119;52.710;6.398;2024-02-14T02:00:49;7.90;99.90
52125;DHT22;38119;52.710;6.398;2024-02-14T02:03:14;8.00;99.90
52125;DHT22;38119;52.710;6.398;2024-02-14T02:05:41;8.00;99.90
52125;DHT22;38119;52.710;6.398;2024-02-14T02:08:10;8.00;99.90
52125;DHT22;38119;52.710;6.398;2024-02-14T02:10:36;8.00;99.90
52125;DHT22;38119;52.710;6.398;2024-02-14T02:13:03;8.10;99.90
52125;DHT22;38119;52.710;6.398;2024-02-14T02:15:28;8.10;99.90
52125;DHT22;38119;52.710;6.398;2024-02-14T02:17:55;8.10;99.90
52125;DHT22;38119;52.710;6.398;2024-02-14T02:20:21;8.00;99.90
52125;DHT22;38119;52.710;6.398;2024-02-14T02:22:47;8.10;99.90
52125;DHT22;38119;52.710;6.398;2024-02-14T02:25:13;8.10;99.90
52125;DHT22;38119;52.710;6.398;2024-02-14T02:27:39;8.10;99.90
52125;DHT22;38119;52.710;6.398;2024-02-14T02:30:06;8.10;99.90
52125;DHT22;38119;52.710;6.398;2024-02-14T02:32:32;8.10;99.90
52125;DHT22;38119;52.710;6.398;2024-02-14T02:34:58;8.10;99.90
52125;DHT22;38119;52.710;6.398;2024-02-14T02:37:25;8.10;99.90
52125;DHT22;38119;52.710;6.398;2024-02-14T02:39:51;8.20;99.90
52125;DHT22;38119;52.710;6.398;2024-02-14T02:42:17;8.20;99.90
52125;DHT22;38119;52.710;6.398;2024-02-14T02:44:46;8.20;99.90
52125;DHT22;38119;52.710;6.398;2024-02-14T02:47:12;8.20;99.90
52125;DHT22;38119;52.710;6.398;2024-02-14T02:49:38;8.20;99.90
52125;DHT22;38119;52.710;6.398;2024-02-14T02:52:04;8.20;99.90
52125;DHT22;38119;52.710;6.398;2024-02-14T02:54:29;8.30;99.90
52125;DHT22;38119;52.710;6.398;2024-02-14T02:56:55;8.30;99.90
52125;DHT22;38119;52.710;6.398;2024-02-14T02:59:20;8.30;99.90
52125;DHT22;38119;52.710;6.398;2024-02-14T03:01:47;8.30;99.90
52125;DHT22;38119;52.710;6.398;2024-02-14T03:04:15;8.30;99.90
52125;DHT22;38119;52.710;6.398;2024-02-14T03:06:40;8.40;99.90
52125;DHT22;38119;52.710;6.398;2024-02-14T03:09:08;8.40;99.90
52125;DHT22;38119;52.710;6.398;2024-02-14T03:11:34;8.40;99.90
52125;DHT22;38119;52.710;6.398;2024-02-14T03:14:01;8.40;99.90
52125;DHT22;38119;52.710;6.398;2024-02-14T03:16:27;8.40;99.90
52125;DHT22;38119;52.710;6.398;2024-02-14T03:18:54;8.40;99.90
52125;DHT22;38119;52.710;6.398;2024-02-14T03:21:20;8.60;99.90
52125;DHT22;38119;52.710;6.398;2024-02-14T03:23:46;8.50;99.90
52125;DHT22;38119;52.710;6.398;2024-02-14T03:26:11;8.50;99.90
52125;DHT22;38119;52.710;6.398;2024-02-14T03:28:37;8.50;99.90
52125;DHT22;38119;52.710;6.398;2024-02-14T03:31:03;8.60;99.90
52125;DHT22;38119;52.710;6.398;2024-02-14T03:33:29;8.50;99.90
52125;DHT22;38119;52.710;6.398;2024-02-14T03:35:55;8.60;99.90
52125;DHT22;38119;52.710;6.398;2024-02-14T03:38:28;8.60;99.90
52125;DHT22;38119;52.710;6.398;2024-02-14T03:40:54;8.60;99.90
52125;DHT22;38119;52.710;6.398;2024-02-14T03:43:20;8.70;99.90
52125;DHT22;38119;52.710;6.398;2024-02-14T03:45:47;8.60;99.90
52125;DHT22;38119;52.710;6.398;2024-02-14T03:48:12;8.70;99.90
52125;DHT22;38119;52.710;6.398;2024-02-14T03:50:39;8.80;99.90
52125;DHT22;38119;52.710;6.398;2024-02-14T03:53:04;8.80;99.90
52125;DHT22;38119;52.710;6.398;2024-02-14T03:55:31;8.80;99.90
52125;DHT22;38119;52.710;6.398;2024-02-14T03:57:56;8.80;99.90
52125;DHT22;38119;52.710;6.398;2024-02-14T04:00:22;8.90;99.90
52125;DHT22;38119;52.710;6.398;2024-02-14T04:02:48;8.90;99.90
52125;DHT22;38119;52.710;6.398;2024-02-14T04:05:14;8.90;99.90
52125;DHT22;38119;52.710;6.398;2024-02-14T04:07:40;8.90;99.90
52125;DHT22;38119;52.710;6.398;2024-02-14T04:10:06;9.00;99.90
52125;DHT22;38119;52.710;6.398;2024-02-14T04:12:32;9.00;99.90
52125;DHT22;38119;52.710;6.398;2024-02-14T04:14:58;9.00;99.90
52125;DHT22;38119;52.710;6.398;2024-02-14T04:17:23;9.00;99.90
52125;DHT22;38119;52.710;6.398;2024-02-14T04:19:50;9.20;99.90
52125;DHT22;38119;52.710;6.398;2024-02-14T04:22:15;9.10;99.90
52125;DHT22;38119;52.710;6.398;2024-02-14T04:24:41;9.10;99.90
52125;DHT22;38119;52.710;6.398;2024-02-14T04:27:07;9.10;99.90
52125;DHT22;38119;52.710;6.398;2024-02-14T04:29:32;9.20;99.90
52125;DHT22;38119;52.710;6.398;2024-02-14T04:32:02;9.20;99.90
52125;DHT22;38119;52.710;6.398;2024-02-14T04:34:28;9.20;99.90
52125;DHT22;38119;52.710;6.398;2024-02-14T04:36:55;9.20;99.90
52125;DHT22;38119;52.710;6.398;2024-02-14T04:39:22;9.30;99.90
52125;DHT22;38119;52.710;6.398;2024-02-14T04:41:47;9.00;99.90
52125;DHT22;38119;52.710;6.398;2024-02-14T04:44:13;9.30;99.90
52125;DHT22;38119;52.710;6.398;2024-02-14T04:46:38;9.30;99.90
52125;DHT22;38119;52.710;6.398;2024-02-14T04:49:09;9.30;99.90
52125;DHT22;38119;52.710;6.398;2024-02-14T04:51:35;9.30;99.90
52125;DHT22;38119;52.710;6.398;2024-02-14T04:54:00;9.40;99.90
52125;DHT22;38119;52.710;6.398;2024-02-14T04:56:27;9.40;99.90
52125;DHT22;38119;52.710;6.398;2024-02-14T04:58:53;9.40;99.90
52125;DHT22;38119;52.710;6.398;2024-02-14T05:01:20;9.40;99.90
52125;DHT22;38119;52.710;6.398;2024-02-14T05:03:45;9.50;99.90
52125;DHT22;38119;52.710;6.398;2024-02-14T05:06:11;9.40;99.90
52125;DHT22;38119;52.710;6.398;2024-02-14T05:08:37;9.50;99.90
52125;DHT22;38119;52.710;6.398;2024-02-14T05:11:02;9.50;99.90
52125;DHT22;38119;52.710;6.398;2024-02-14T05:13:29;9.50;99.90
52125;DHT22;38119;52.710;6.398;2024-02-14T05:15:55;9.50;99.90
52125;DHT22;38119;52.710;6.398;2024-02-14T05:18:21;9.50;99.90
52125;DHT22;38119;52.710;6.398;2024-02-14T05:20:47;9.50;99.90
52125;DHT22;38119;52.710;6.398;2024-02-14T05:23:12;9.50;99.90
52125;DHT22;38119;52.710;6.398;2024-02-14T05:25:38;9.60;99.90
52125;DHT22;38119;52.710;6.398;2024-02-14T05:28:05;9.60;99.90
52125;DHT22;38119;52.710;6.398;2024-02-14T05:30:30;9.60;99.90
52125;DHT22;38119;52.710;6.398;2024-02-14T05:32:57;9.60;99.90
52125;DHT22;38119;52.710;6.398;2024-02-14T05:35:23;9.60;99.90
52125;DHT22;38119;52.710;6.398;2024-02-14T05:37:49;9.60;99.90
52125;DHT22;38119;52.710;6.398;2024-02-14T05:40:15;9.60;99.90
52125;DHT22;38119;52.710;6.398;2024-02-14T05:42:41;9.60;99.90
52125;DHT22;38119;52.710;6.398;2024-02-14T05:45:07;9.60;99.90
52125;DHT22;38119;52.710;6.398;2024-02-14T05:47:35;9.60;99.90
52125;DHT22;38119;52.710;6.398;2024-02-14T05:50:00;9.70;99.90
52125;DHT22;38119;52.710;6.398;2024-02-14T05:52:26;9.60;99.90
52125;DHT22;38119;52.710;6.398;2024-02-14T05:54:52;9.70;99.90
52125;DHT22;38119;52.710;6.398;2024-02-14T05:57:17;9.60;99.90
52125;DHT22;38119;52.710;6.398;2024-02-14T05:59:43;9.70;99.90
52125;DHT22;38119;52.710;6.398;2024-02-14T06:02:08;9.70;99.90
52125;DHT22;38119;52.710;6.398;2024-02-14T06:04:35;9.70;99.90
52125;DHT22;38119;52.710;6.398;2024-02-14T06:07:01;9.70;99.90
52125;DHT22;38119;52.710;6.398;2024-02-14T06:09:28;9.80;99.90
52125;DHT22;38119;52.710;6.398;2024-02-14T06:11:54;9.80;99.90
52125;DHT22;38119;52.710;6.398;2024-02-14T06:14:20;9.80;99.90
52125;DHT22;38119;52.710;6.398;2024-02-14T06:16:45;9.70;99.90
52125;DHT22;38119;52.710;6.398;2024-02-14T06:19:11;9.80;99.90
52125;DHT22;38119;52.710;6.398;2024-02-14T06:21:37;9.70;99.90
52125;DHT22;38119;52.710;6.398;2024-02-14T06:24:04;9.70;99.90
52125;DHT22;38119;52.710;6.398;2024-02-14T06:26:30;9.70;99.90
52125;DHT22;38119;52.710;6.398;2024-02-14T06:28:56;9.80;99.90
52125;DHT22;38119;52.710;6.398;2024-02-14T06:31:22;9.80;99.90
52125;DHT22;38119;52.710;6.398;2024-02-14T06:33:48;9.80;99.90
52125;DHT22;38119;52.710;6.398;2024-02-14T06:36:14;9.80;99.90
52125;DHT22;38119;52.710;6.398;2024-02-14T06:38:40;9.80;99.90
52125;DHT22;38119;52.710;6.398;2024-02-14T06:41:06;9.80;99.90
52125;DHT22;38119;52.710;6.398;2024-02-14T06:43:31;9.80;99.90
52125;DHT22;38119;52.710;6.398;2024-02-14T06:45:57;9.80;99.90
52125;DHT22;38119;52.710;6.398;2024-02-14T06:48:22;9.80;99.90
52125;DHT22;38119;52.710;6.398;2024-02-14T06:50:50;9.80;99.90
52125;DHT22;38119;52.710;6.398;2024-02-14T06:53:16;9.80;99.90
52125;DHT22;38119;52.710;6.398;2024-02-14T06:55:42;9.90;99.90
52125;DHT22;38119;52.710;6.398;2024-02-14T06:58:07;9.90;99.90
52125;DHT22;38119;52.710;6.398;2024-02-14T07:00:33;9.90;99.90
52125;DHT22;38119;52.710;6.398;2024-02-14T07:02:59;9.90;99.90
52125;DHT22;38119;52.710;6.398;2024-02-14T07:05:25;9.90;99.90
52125;DHT22;38119;52.710;6.398;2024-02-14T07:07:53;9.90;99.90
52125;DHT22;38119;52.710;6.398;2024-02-14T07:10:18;9.90;99.90
52125;DHT22;38119;52.710;6.398;2024-02-14T07:12:44;9.90;99.90
52125;DHT22;38119;52.710;6.398;2024-02-14T07:15:10;9.90;99.90
52125;DHT22;38119;52.710;6.398;2024-02-14T07:17:36;9.90;99.90
52125;DHT22;38119;52.710;6.398;2024-02-14T07:20:04;9.90;99.90
52125;DHT22;38119;52.710;6.398;2024-02-14T07:22:30;9.90;99.90
52125;DHT22;38119;52.710;6.398;2024-02-14T07:24:56;10.00;99.90
52125;DHT22;38119;52.710;6.398;2024-02-14T07:27:21;9.90;99.90
52125;DHT22;38119;52.710;6.398;2024-02-14T07:29:49;10.00;99.90
52125;DHT22;38119;52.710;6.398;2024-02-14T07:32:15;10.00;99.90
52125;DHT22;38119;52.710;6.398;2024-02-14T07:34:42;10.00;99.90
52125;DHT22;38119;52.710;6.398;2024-02-14T07:37:08;10.10;99.90
52125;DHT22;38119;52.710;6.398;2024-02-14T07:39:33;10.10;99.90
52125;DHT22;38119;52.710;6.398;2024-02-14T07:42:01;10.10;99.90
52125;DHT22;38119;52.710;6.398;2024-02-14T07:44:27;10.10;99.90
52125;DHT22;38119;52.710;6.398;2024-02-14T07:46:52;10.10;99.90
52125;DHT22;38119;52.710;6.398;2024-02-14T07:49:18;10.10;99.90
52125;DHT22;38119;52.710;6.398;2024-02-14T07:51:45;10.10;99.90
52125;DHT22;38119;52.710;6.398;2024-02-14T07:54:10;10.20;99.90
52125;DHT22;38119;52.710;6.398;2024-02-14T07:56:36;10.10;99.90
52125;DHT22;38119;52.710;6.398;2024-02-14T07:59:02;10.20;99.90
52125;DHT22;38119;52.710;6.398;2024-02-14T08:01:27;10.20;99.90
52125;DHT22;38119;52.710;6.398;2024-02-14T08:03:54;10.20;99.90
52125;DHT22;38119;52.710;6.398;2024-02-14T08:06:20;10.20;99.90
52125;DHT22;38119;52.710;6.398;2024-02-14T08:08:45;10.20;99.90
52125;DHT22;38119;52.710;6.398;2024-02-14T08:11:11;10.20;99.90
52125;DHT22;38119;52.710;6.398;2024-02-14T08:13:37;10.20;99.90
52125;DHT22;38119;52.710;6.398;2024-02-14T08:16:05;10.30;99.90
52125;DHT22;38119;52.710;6.398;2024-02-14T08:18:32;10.30;99.90
52125;DHT22;38119;52.710;6.398;2024-02-14T08:20:57;10.30;99.90
52125;DHT22;38119;52.710;6.398;2024-02-14T08:23:23;10.20;99.90
52125;DHT22;38119;52.710;6.398;2024-02-14T08:25:49;10.30;99.90
52125;DHT22;38119;52.710;6.398;2024-02-14T08:28:15;10.30;99.90
52125;DHT22;38119;52.710;6.398;2024-02-14T08:30:44;10.30;99.90
52125;DHT22;38119;52.710;6.398;2024-02-14T08:33:09;10.30;99.90
52125;DHT22;38119;52.710;6.398;2024-02-14T08:35:36;10.30;99.90
52125;DHT22;38119;52.710;6.398;2024-02-14T08:38:01;10.30;99.90
52125;DHT22;38119;52.710;6.398;2024-02-14T08:40:27;10.30;99.90
52125;DHT22;38119;52.710;6.398;2024-02-14T08:42:53;10.30;99.90
52125;DHT22;38119;52.710;6.398;2024-02-14T08:45:18;10.40;99.90
52125;DHT22;38119;52.710;6.398;2024-02-14T08:47:44;10.30;99.90
52125;DHT22;38119;52.710;6.398;2024-02-14T08:50:10;10.30;99.90
52125;DHT22;38119;52.710;6.398;2024-02-14T08:52:35;10.40;99.90
52125;DHT22;38119;52.710;6.398;2024-02-14T08:55:03;10.40;99.90
52125;DHT22;38119;52.710;6.398;2024-02-14T08:57:29;10.40;99.90
52125;DHT22;38119;52.710;6.398;2024-02-14T08:59:56;10.40;99.90
52125;DHT22;38119;52.710;6.398;2024-02-14T09:02:22;10.40;99.90
52125;DHT22;38119;52.710;6.398;2024-02-14T09:04:48;10.40;99.90
52125;DHT22;38119;52.710;6.398;2024-02-14T09:07:15;10.40;99.90
52125;DHT22;38119;52.710;6.398;2024-02-14T09:09:41;10.40;99.90
52125;DHT22;38119;52.710;6.398;2024-02-14T09:12:07;10.40;99.90
52125;DHT22;38119;52.710;6.398;2024-02-14T09:14:33;10.40;99.90
52125;DHT22;38119;52.710;6.398;2024-02-14T09:16:59;10.40;99.90
52125;DHT22;38119;52.710;6.398;2024-02-14T09:19:24;10.40;99.90
52125;DHT22;38119;52.710;6.398;2024-02-14T09:21:51;10.40;99.90
52125;DHT22;38119;52.710;6.398;2024-02-14T09:24:16;10.50;99.90
52125;DHT22;38119;52.710;6.398;2024-02-14T09:26:42;10.40;99.90
52125;DHT22;38119;52.710;6.398;2024-02-14T09:29:09;10.40;99.90
52125;DHT22;38119;52.710;6.398;2024-02-14T09:31:36;10.40;99.90
52125;DHT22;38119;52.710;6.398;2024-02-14T09:34:02;10.40;99.90
52125;DHT22;38119;52.710;6.398;2024-02-14T09:36:28;10.40;99.90
52125;DHT22;38119;52.710;6.398;2024-02-14T09:38:54;10.50;99.90
52125;DHT22;38119;52.710;6.398;2024-02-14T09:41:31;10.50;99.90
52125;DHT22;38119;52.710;6.398;2024-02-14T09:43:58;10.50;99.90
52125;DHT22;38119;52.710;6.398;2024-02-14T09:46:24;10.50;99.90
52125;DHT22;38119;52.710;6.398;2024-02-14T09:48:53;10.50;99.90
52125;DHT22;38119;52.710;6.398;2024-02-14T09:51:21;10.50;99.90
52125;DHT22;38119;52.710;6.398;2024-02-14T09:53:47;10.70;99.90
52125;DHT22;38119;52.710;6.398;2024-02-14T09:56:14;10.60;99.90
52125;DHT22;38119;52.710;6.398;2024-02-14T09:58:42;10.60;99.90
52125;DHT22;38119;52.710;6.398;2024-02-14T10:01:08;10.60;99.90
52125;DHT22;38119;52.710;6.398;2024-02-14T10:03:33;10.60;99.90
52125;DHT22;38119;52.710;6.398;2024-02-14T10:06:01;10.70;99.90
52125;DHT22;38119;52.710;6.398;2024-02-14T10:08:27;10.70;99.90
52125;DHT22;38119;52.710;6.398;2024-02-14T10:10:56;10.70;99.90
52125;DHT22;38119;52.710;6.398;2024-02-14T10:13:21;10.70;99.90
52125;DHT22;38119;52.710;6.398;2024-02-14T10:15:48;10.70;99.90
52125;DHT22;38119;52.710;6.398;2024-02-14T10:18:14;10.70;99.90
52125;DHT22;38119;52.710;6.398;2024-02-14T10:20:51;10.70;99.90
52125;DHT22;38119;52.710;6.398;2024-02-14T10:23:17;10.70;99.90
52125;DHT22;38119;52.710;6.398;2024-02-14T10:25:43;10.70;99.90
52125;DHT22;38119;52.710;6.398;2024-02-14T10:28:08;10.70;99.90
52125;DHT22;38119;52.710;6.398;2024-02-14T10:30:36;10.70;99.90
52125;DHT22;38119;52.710;6.398;2024-02-14T10:33:03;10.70;99.90
52125;DHT22;38119;52.710;6.398;2024-02-14T10:35:30;10.80;99.90
52125;DHT22;38119;52.710;6.398;2024-02-14T10:37:58;10.80;99.90
52125;DHT22;38119;52.710;6.398;2024-02-14T10:40:27;10.80;99.90
52125;DHT22;38119;52.710;6.398;2024-02-14T10:42:54;10.80;99.90
52125;DHT22;38119;52.710;6.398;2024-02-14T10:45:20;10.80;99.90
52125;DHT22;38119;52.710;6.398;2024-02-14T10:47:46;10.80;99.90
52125;DHT22;38119;52.710;6.398;2024-02-14T10:50:14;10.80;99.90
52125;DHT22;38119;52.710;6.398;2024-02-14T10:52:41;10.90;99.90
52125;DHT22;38119;52.710;6.398;2024-02-14T10:55:07;10.90;99.90
52125;DHT22;38119;52.710;6.398;2024-02-14T10:57:34;10.90;99.90
52125;DHT22;38119;52.710;6.398;2024-02-14T11:00:07;10.90;99.90
52125;DHT22;38119;52.710;6.398;2024-02-14T11:02:35;10.90;99.90
52125;DHT22;38119;52.710;6.398;2024-02-14T11:05:02;11.00;99.90
52125;DHT22;38119;52.710;6.398;2024-02-14T11:07:28;11.00;99.90
52125;DHT22;38119;52.710;6.398;2024-02-14T11:10:07;11.00;99.90
52125;DHT22;38119;52.710;6.398;2024-02-14T11:12:34;11.00;99.90
52125;DHT22;38119;52.710;6.398;2024-02-14T11:15:20;11.10;99.90
52125;DHT22;38119;52.710;6.398;2024-02-14T11:17:47;11.10;99.90
52125;DHT22;38119;52.710;6.398;2024-02-14T11:20:19;11.10;99.90
52125;DHT22;38119;52.710;6.398;2024-02-14T11:23:01;11.10;99.90
52125;DHT22;38119;52.710;6.398;2024-02-14T11:25:29;11.10;99.90
52125;DHT22;38119;52.710;6.398;2024-02-14T11:27:57;11.20;99.90
52125;DHT22;38119;52.710;6.398;2024-02-14T11:30:34;11.20;99.90
52125;DHT22;38119;52.710;6.398;2024-02-14T11:33:20;11.20;99.90
52125;DHT22;38119;52.710;6.398;2024-02-14T11:35:53;11.20;99.90
52125;DHT22;38119;52.710;6.398;2024-02-14T11:38:21;11.30;99.90
52125;DHT22;38119;52.710;6.398;2024-02-14T11:40:47;11.30;99.90
52125;DHT22;38119;52.710;6.398;2024-02-14T11:43:15;11.40;99.90
52125;DHT22;38119;52.710;6.398;2024-02-14T11:45:43;11.40;99.90
52125;DHT22;38119;52.710;6.398;2024-02-14T11:48:10;11.50;99.90
52125;DHT22;38119;52.710;6.398;2024-02-14T11:50:38;11.50;99.90
52125;DHT22;38119;52.710;6.398;2024-02-14T11:53:04;11.50;99.90
52125;DHT22;38119;52.710;6.398;2024-02-14T11:55:34;11.50;99.90
52125;DHT22;38119;52.710;6.398;2024-02-14T11:58:02;11.50;99.90
52125;DHT22;38119;52.710;6.398;2024-02-14T12:00:27;11.50;99.90
52125;DHT22;38119;52.710;6.398;2024-02-14T12:02:53;11.50;99.90
52125;DHT22;38119;52.710;6.398;2024-02-14T12:05:19;11.50;99.90
52125;DHT22;38119;52.710;6.398;2024-02-14T12:07:45;11.50;99.90
52125;DHT22;38119;52.710;6.398;2024-02-14T12:10:11;11.50;99.90
52125;DHT22;38119;52.710;6.398;2024-02-14T12:12:38;11.50;99.90
52125;DHT22;38119;52.710;6.398;2024-02-14T12:15:04;11.50;99.90
52125;DHT22;38119;52.710;6.398;2024-02-14T12:17:31;11.40;99.90
52125;DHT22;38119;52.710;6.398;2024-02-14T12:20:10;11.40;99.90
52125;DHT22;38119;52.710;6.398;2024-02-14T12:22:40;11.40;99.90
52125;DHT22;38119;52.710;6.398;2024-02-14T12:25:07;11.40;99.90
52125;DHT22;38119;52.710;6.398;2024-02-14T12:27:34;11.40;99.90
52125;DHT22;38119;52.710;6.398;2024-02-14T12:30:03;11.40;99.90
52125;DHT22;38119;52.710;6.398;2024-02-14T12:32:29;11.30;99.90
52125;DHT22;38119;52.710;6.398;2024-02-14T12:34:59;11.40;99.90
52125;DHT22;38119;52.710;6.398;2024-02-14T12:37:25;11.40;99.90
52125;DHT22;38119;52.710;6.398;2024-02-14T12:39:51;11.40;99.90
52125;DHT22;38119;52.710;6.398;2024-02-14T12:42:16;11.40;99.90
52125;DHT22;38119;52.710;6.398;2024-02-14T12:44:44;11.40;99.90
52125;DHT22;38119;52.710;6.398;2024-02-14T12:47:09;11.40;99.90
52125;DHT22;38119;52.710;6.398;2024-02-14T12:49:35;11.40;99.90
52125;DHT22;38119;52.710;6.398;2024-02-14T12:52:01;11.40;99.90
52125;DHT22;38119;52.710;6.398;2024-02-14T12:54:28;11.40;99.90
52125;DHT22;38119;52.710;6.398;2024-02-14T12:56:54;11.40;99.90
52125;DHT22;38119;52.710;6.398;2024-02-14T12:59:19;11.40;99.90
52125;DHT22;38119;52.710;6.398;2024-02-14T13:04:53;11.40;99.90
52125;DHT22;38119;52.710;6.398;2024-02-14T13:07:19;11.40;99.90
52125;DHT22;38119;52.710;6.398;2024-02-14T13:09:45;11.40;99.90
52125;DHT22;38119;52.710;6.398;2024-02-14T13:12:11;11.40;99.90
52125;DHT22;38119;52.710;6.398;2024-02-14T13:14:36;11.40;99.90
52125;DHT22;38119;52.710;6.398;2024-02-14T13:17:02;11.40;99.90
52125;DHT22;38119;52.710;6.398;2024-02-14T13:19:28;11.40;99.90
52125;DHT22;38119;52.710;6.398;2024-02-14T13:21:53;11.40;99.90
52125;DHT22;38119;52.710;6.398;2024-02-14T13:24:20;11.40;99.90
52125;DHT22;38119;52.710;6.398;2024-02-14T13:26:45;11.40;99.90
52125;DHT22;38119;52.710;6.398;2024-02-14T13:29:11;11.40;99.90
52125;DHT22;38119;52.710;6.398;2024-02-14T13:31:36;11.40;99.90
52125;DHT22;38119;52.710;6.398;2024-02-14T13:34:02;11.40;99.90
52125;DHT22;38119;52.710;6.398;2024-02-14T13:36:29;11.40;99.90
52125;DHT22;38119;52.710;6.398;2024-02-14T13:38:55;11.40;99.90
52125;DHT22;38119;52.710;6.398;2024-02-14T13:41:20;11.40;99.90
52125;DHT22;38119;52.710;6.398;2024-02-14T13:43:46;11.40;99.90
52125;DHT22;38119;52.710;6.398;2024-02-14T13:46:12;11.40;99.90
52125;DHT22;38119;52.710;6.398;2024-02-14T13:48:39;11.40;99.90
52125;DHT22;38119;52.710;6.398;2024-02-14T13:51:04;11.40;99.90
52125;DHT22;38119;52.710;6.398;2024-02-14T13:53:30;11.50;99.90
52125;DHT22;38119;52.710;6.398;2024-02-14T13:55:55;11.40;99.90
52125;DHT22;38119;52.710;6.398;2024-02-14T13:58:21;11.50;99.90
52125;DHT22;38119;52.710;6.398;2024-02-14T14:00:47;11.50;99.90
52125;DHT22;38119;52.710;6.398;2024-02-14T14:03:12;11.50;99.90
52125;DHT22;38119;52.710;6.398;2024-02-14T14:05:38;11.40;99.90
52125;DHT22;38119;52.710;6.398;2024-02-14T14:08:04;11.50;99.90
52125;DHT22;38119;52.710;6.398;2024-02-14T14:10:29;11.40;99.90
52125;DHT22;38119;52.710;6.398;2024-02-14T14:12:55;11.40;99.90
52125;DHT22;38119;52.710;6.398;2024-02-14T14:15:21;11.40;99.90
52125;DHT22;38119;52.710;6.398;2024-02-14T14:17:47;11.40;99.90
52125;DHT22;38119;52.710;6.398;2024-02-14T14:20:14;11.40;99.90
52125;DHT22;38119;52.710;6.398;2024-02-14T14:22:39;11.40;99.90
52125;DHT22;38119;52.710;6.398;2024-02-14T14:25:05;11.30;99.90
52125;DHT22;38119;52.710;6.398;2024-02-14T14:27:33;11.40;99.90
52125;DHT22;38119;52.710;6.398;2024-02-14T14:29:59;11.40;99.90
52125;DHT22;38119;52.710;6.398;2024-02-14T14:32:24;11.40;99.90
52125;DHT22;38119;52.710;6.398;2024-02-14T14:34:50;11.40;99.90
52125;DHT22;38119;52.710;6.398;2024-02-14T14:37:16;11.30;99.90
52125;DHT22;38119;52.710;6.398;2024-02-14T14:39:41;11.40;99.90
52125;DHT22;38119;52.710;6.398;2024-02-14T14:42:09;11.40;99.90
52125;DHT22;38119;52.710;6.398;2024-02-14T14:44:35;11.40;99.90
52125;DHT22;38119;52.710;6.398;2024-02-14T14:47:01;11.40;99.90
52125;DHT22;38119;52.710;6.398;2024-02-14T14:49:27;11.40;99.90
52125;DHT22;38119;52.710;6.398;2024-02-14T14:51:52;11.40;99.90
52125;DHT22;38119;52.710;6.398;2024-02-14T14:54:18;11.50;99.90
52125;DHT22;38119;52.710;6.398;2024-02-14T14:56:45;11.50;99.90
52125;DHT22;38119;52.710;6.398;2024-02-14T14:59:11;11.50;99.90
52125;DHT22;38119;52.710;6.398;2024-02-14T15:01:37;11.50;99.90
52125;DHT22;38119;52.710;6.398;2024-02-14T15:04:04;11.50;99.90
52125;DHT22;38119;52.710;6.398;2024-02-14T15:06:31;11.50;99.90
52125;DHT22;38119;52.710;6.398;2024-02-14T15:08:57;11.50;99.90
52125;DHT22;38119;52.710;6.398;2024-02-14T15:11:22;11.50;99.90
52125;DHT22;38119;52.710;6.398;2024-02-14T15:13:48;11.50;99.90
52125;DHT22;38119;52.710;6.398;2024-02-14T15:16:14;11.50;99.90
52125;DHT22;38119;52.710;6.398;2024-02-14T15:18:40;11.50;99.90
52125;DHT22;38119;52.710;6.398;2024-02-14T15:21:09;11.50;99.90
52125;DHT22;38119;52.710;6.398;2024-02-14T15:23:34;11.50;99.90
52125;DHT22;38119;52.710;6.398;2024-02-14T15:26:00;11.50;99.90
52125;DHT22;38119;52.710;6.398;2024-02-14T15:28:29;11.60;99.90
52125;DHT22;38119;52.710;6.398;2024-02-14T15:30:58;11.50;99.90
52125;DHT22;38119;52.710;6.398;2024-02-14T15:33:43;11.50;99.90
52125;DHT22;38119;52.710;6.398;2024-02-14T15:36:09;11.50;99.90